Time;durP1;ratioP1;P1;durP2;ratioP2;P2;SDS_P1;SDS_P2;PMS_P1;PMS_P2;Temp;Humidity;BMP_temperature;BMP_pressure;BME280_temperature;BME280_humidity;BME280_pressure;Samples;Min_cycle;Max_cycle;Signal;HPM_P1;HPM_P2
2023/05/11 00:00:31;;;;;;;2.28;0.70;;;10.30;99.90;;;;;;5024897;28;20042;-78
2023/05/11 00:02:58;;;;;;;2.55;0.85;;;10.30;99.90;;;;;;5011422;28;20037;-78
2023/05/11 00:05:24;;;;;;;2.70;0.73;;;10.20;99.90;;;;;;5012166;28;20037;-77
2023/05/11 00:07:50;;;;;;;8.52;1.15;;;10.20;99.90;;;;;;5012412;28;20018;-77
2023/05/11 00:10:17;;;;;;;2.75;0.70;;;10.20;99.90;;;;;;5012763;28;20029;-76
2023/05/11 00:12:43;;;;;;;3.95;1.23;;;10.20;99.90;;;;;;5012778;28;20040;-77
2023/05/11 00:15:09;;;;;;;2.67;0.90;;;10.20;99.90;;;;;;5005025;28;20033;-77
2023/05/11 00:17:35;;;;;;;1.58;0.80;;;10.20;99.90;;;;;;5013276;28;20474;-77
2023/05/11 00:20:02;;;;;;;4.15;0.88;;;10.30;99.90;;;;;;5012716;28;20033;-77
2023/05/11 00:22:28;;;;;;;3.08;0.80;;;10.20;99.90;;;;;;5015716;28;20041;-78
2023/05/11 00:24:54;;;;;;;6.28;0.80;;;10.30;99.90;;;;;;5010712;28;20033;-78
2023/05/11 00:27:21;;;;;;;12.07;2.25;;;10.20;99.90;;;;;;5023624;28;20040;-78
2023/05/11 00:29:47;;;;;;;5.38;1.33;;;10.10;99.90;;;;;;5025084;28;20048;-78
2023/05/11 00:32:13;;;;;;;4.15;1.30;;;10.00;99.90;;;;;;5012217;28;20042;-78
2023/05/11 00:34:39;;;;;;;5.65;1.23;;;10.00;99.90;;;;;;5009608;28;20053;-77
2023/05/11 00:37:06;;;;;;;3.60;1.35;;;10.00;99.90;;;;;;5026529;28;20037;-78
2023/05/11 00:39:37;;;;;;;5.68;1.58;;;10.10;99.90;;;;;;5012829;28;20033;-79
2023/05/11 00:42:03;;;;;;;6.40;1.75;;;10.10;99.90;;;;;;5010223;28;20046;-78
2023/05/11 00:44:29;;;;;;;4.22;1.33;;;10.10;99.90;;;;;;5010580;28;20030;-79
2023/05/11 00:46:56;;;;;;;3.50;1.48;;;10.10;99.90;;;;;;5006505;28;20038;-78
2023/05/11 00:49:22;;;;;;;4.90;1.55;;;10.00;99.90;;;;;;5008744;28;20038;-78
2023/05/11 00:51:49;;;;;;;9.90;2.05;;;10.10;99.90;;;;;;5012349;28;20029;-78
2023/05/11 00:54:15;;;;;;;5.57;1.80;;;10.20;99.90;;;;;;5009894;28;20034;-78
2023/05/11 00:56:41;;;;;;;2.65;1.30;;;10.20;99.90;;;;;;5009895;28;20041;-78
2023/05/11 00:59:08;;;;;;;8.60;2.75;;;10.10;99.90;;;;;;5011642;28;20037;-79
2023/05/11 01:01:34;;;;;;;4.13;2.33;;;10.00;99.90;;;;;;5012433;28;20363;-78
2023/05/11 01:04:04;;;;;;;3.85;1.90;;;10.00;99.90;;;;;;5010170;28;20048;-78
2023/05/11 01:07:10;;;;;;;6.18;2.63;;;9.90;99.90;;;;;;5010897;28;20026;-77
2023/05/11 01:09:57;;;;;;;6.78;3.00;;;10.00;99.90;;;;;;4958049;28;20058;-78
2023/05/11 01:12:46;;;;;;;6.38;2.58;;;9.90;99.90;;;;;;5010816;28;20036;-77
2023/05/11 01:15:23;;;;;;;6.88;2.28;;;9.80;99.90;;;;;;5006711;28;20237;-79
2023/05/11 01:18:00;;;;;;;5.18;2.03;;;9.80;99.90;;;;;;5023805;28;20045;-79
2023/05/11 01:20:28;;;;;;;3.30;1.60;;;9.70;99.90;;;;;;5007245;28;20045;-79
2023/05/11 01:23:06;;;;;;;3.95;1.65;;;9.80;99.90;;;;;;4994022;28;20034;-80
2023/05/11 01:25:43;;;;;;;3.92;1.20;;;9.70;99.90;;;;;;5006455;28;20038;-79
2023/05/11 01:29:04;;;;;;;6.50;1.80;;;9.70;99.90;;;;;;5007712;28;20037;-79
2023/05/11 01:31:32;;;;;;;4.30;1.95;;;9.70;99.90;;;;;;4994492;28;20046;-80
2023/05/11 01:34:03;;;;;;;3.70;1.95;;;9.50;99.90;;;;;;4988413;28;20490;-80
2023/05/11 01:36:33;;;;;;;;;;;9.60;99.90;;;;;;5018890;28;20037;-79
2023/05/11 01:39:04;;;;;;;4.68;1.67;;;9.50;99.90;;;;;;5008066;28;19901;-79
2023/05/11 01:41:33;;;;;;;4.90;1.85;;;9.50;99.90;;;;;;5013262;28;20029;-78
2023/05/11 01:44:04;;;;;;;3.50;1.65;;;9.50;99.90;;;;;;5012608;28;20044;-78
2023/05/11 01:46:32;;;;;;;2.30;1.40;;;9.40;99.90;;;;;;5010275;28;20026;-78
2023/05/11 01:49:01;;;;;;;3.15;1.23;;;9.40;99.90;;;;;;5012655;28;20034;-78
2023/05/11 01:51:33;;;;;;;6.07;1.40;;;9.40;99.90;;;;;;5023594;28;20053;-77
2023/05/11 01:54:00;;;;;;;4.38;1.20;;;9.50;99.90;;;;;;5012150;28;20022;-78
2023/05/11 01:56:27;;;;;;;5.07;1.85;;;9.50;99.90;;;;;;5026136;28;20037;-79
2023/05/11 01:58:56;;;;;;;6.18;1.52;;;9.60;99.90;;;;;;5011635;28;20040;-82
2023/05/11 02:01:23;;;;;;;3.72;1.13;;;9.60;99.90;;;;;;5011020;28;20030;-78
2023/05/11 02:03:51;;;;;;;3.75;1.33;;;9.60;99.90;;;;;;5009153;28;20041;-78
2023/05/11 02:06:18;;;;;;;4.88;1.30;;;9.70;99.90;;;;;;5008394;28;20029;-78
2023/05/11 02:08:47;;;;;;;4.55;1.48;;;9.70;99.90;;;;;;5010048;28;20038;-78
2023/05/11 02:11:14;;;;;;;5.63;1.65;;;9.60;99.90;;;;;;4993699;28;20042;-78
2023/05/11 02:13:44;;;;;;;3.83;1.15;;;9.70;99.90;;;;;;5007484;28;20374;-78
2023/05/11 02:16:12;;;;;;;5.43;1.15;;;9.60;99.90;;;;;;5009497;28;20026;-78
2023/05/11 02:18:39;;;;;;;1.85;1.10;;;9.40;99.90;;;;;;5010314;28;20448;-78
2023/05/11 02:21:08;;;;;;;3.17;1.60;;;9.30;99.90;;;;;;4990379;28;20049;-78
2023/05/11 02:23:36;;;;;;;4.57;1.35;;;9.30;99.90;;;;;;4997102;28;20045;-78
2023/05/11 02:26:04;;;;;;;5.72;1.13;;;9.30;99.90;;;;;;5012828;28;20443;-78
2023/05/11 02:28:30;;;;;;;2.25;1.25;;;9.40;99.90;;;;;;5014957;28;20022;-78
2023/05/11 02:31:04;;;;;;;1.85;0.90;;;9.50;99.90;;;;;;5012369;28;20042;-78
2023/05/11 02:33:34;;;;;;;1.83;1.23;;;9.40;99.90;;;;;;5012667;28;20045;-78
2023/05/11 02:36:01;;;;;;;5.05;1.23;;;9.40;99.90;;;;;;5015009;28;20030;-78
2023/05/11 02:38:34;;;;;;;2.95;1.10;;;9.30;99.90;;;;;;4997035;28;20041;-78
2023/05/11 02:41:10;;;;;;;2.92;1.25;;;9.30;99.90;;;;;;5010993;28;20030;-78
2023/05/11 02:43:43;;;;;;;1.98;1.20;;;9.30;99.90;;;;;;5006934;28;20052;-79
2023/05/11 02:46:14;;;;;;;6.70;1.67;;;9.30;99.90;;;;;;5010090;28;20383;-78
2023/05/11 02:48:43;;;;;;;;;;;9.30;99.90;;;;;;5013490;28;20042;-78
2023/05/11 02:51:12;;;;;;;3.47;1.13;;;9.20;99.90;;;;;;5028178;28;19909;-78
2023/05/11 02:53:45;;;;;;;3.25;1.33;;;9.30;99.90;;;;;;5029270;28;20041;-78
2023/05/11 02:56:12;;;;;;;2.63;1.48;;;9.30;99.90;;;;;;5026878;28;20460;-78
2023/05/11 02:58:39;;;;;;;4.95;1.63;;;9.20;99.90;;;;;;5012353;28;20037;-78
2023/05/11 03:01:16;;;;;;;3.65;1.73;;;9.20;99.90;;;;;;5012363;28;20042;-78
2023/05/11 03:03:42;;;;;;;3.47;1.30;;;9.30;99.90;;;;;;5012400;28;20057;-78
2023/05/11 03:06:09;;;;;;;4.35;1.58;;;9.40;99.90;;;;;;5011755;28;20459;-77
2023/05/11 03:08:35;;;;;;;4.72;1.50;;;9.40;99.90;;;;;;5014763;28;20030;-78
2023/05/11 03:11:02;;;;;;;6.32;1.58;;;9.40;99.90;;;;;;5011454;28;20038;-78
2023/05/11 03:13:29;;;;;;;5.00;1.55;;;9.40;99.90;;;;;;5014240;28;20032;-81
2023/05/11 03:16:01;;;;;;;3.22;1.70;;;9.40;99.90;;;;;;5013837;28;20376;-79
2023/05/11 03:18:31;;;;;;;5.72;2.53;;;9.40;99.90;;;;;;5013158;28;20391;-78
2023/05/11 03:20:59;;;;;;;2.80;1.42;;;9.30;99.90;;;;;;5015660;28;20034;-82
2023/05/11 03:23:26;;;;;;;4.75;1.17;;;9.20;99.90;;;;;;5017121;28;20034;-78
2023/05/11 03:25:53;;;;;;;3.03;1.48;;;9.30;99.90;;;;;;5012734;28;20045;-78
2023/05/11 03:28:23;;;;;;;3.03;1.00;;;9.40;99.90;;;;;;5009069;28;20034;-78
2023/05/11 03:30:58;;;;;;;3.75;1.40;;;9.30;99.90;;;;;;5027319;28;20033;-81
2023/05/11 03:33:25;;;;;;;7.72;2.95;;;9.40;99.90;;;;;;5010068;28;20046;-78
2023/05/11 03:35:52;;;;;;;1.77;0.82;;;9.30;99.90;;;;;;5011464;28;20459;-81
2023/05/11 03:38:27;;;;;;;5.32;1.60;;;9.30;99.90;;;;;;5001548;28;20523;-79
2023/05/11 03:40:56;;;;;;;6.18;1.40;;;9.30;99.90;;;;;;5004981;28;20050;-77
2023/05/11 03:43:27;;;;;;;4.50;1.50;;;9.20;99.90;;;;;;5014384;28;20068;-78
2023/05/11 03:45:56;;;;;;;2.72;1.33;;;9.00;99.90;;;;;;5006234;28;20044;-79
2023/05/11 03:48:24;;;;;;;4.57;1.80;;;9.10;99.90;;;;;;5010263;28;20045;-80
2023/05/11 03:50:55;;;;;;;2.65;1.50;;;9.10;99.90;;;;;;5026922;28;20045;-79
2023/05/11 03:53:22;;;;;;;3.28;1.80;;;9.00;99.90;;;;;;5026173;28;20049;-79
2023/05/11 03:55:49;;;;;;;4.65;1.80;;;8.90;99.90;;;;;;5025519;28;20034;-78
2023/05/11 03:58:15;;;;;;;3.45;1.85;;;9.00;99.90;;;;;;5009691;28;20366;-78
2023/05/11 04:00:42;;;;;;;5.10;1.85;;;9.00;1.00;;;;;;5011550;28;20044;-78
2023/05/11 04:03:08;;;;;;;4.32;2.67;;;9.10;1.00;;;;;;4994788;28;20490;-78
2023/05/11 04:05:35;;;;;;;2.58;1.67;;;9.10;99.90;;;;;;5015255;28;20092;-77
2023/05/11 04:08:08;;;;;;;2.50;1.48;;;9.00;99.90;;;;;;5005833;28;20034;-77
2023/05/11 04:10:34;;;;;;;3.38;1.63;;;8.90;99.90;;;;;;5013279;28;20029;-78
2023/05/11 04:13:00;;;;;;;3.58;1.92;;;8.90;1.00;;;;;;5008388;28;20042;-78
2023/05/11 04:15:27;;;;;;;3.42;1.45;;;8.90;1.00;;;;;;5011285;28;20029;-76
2023/05/11 04:17:53;;;;;;;2.97;1.58;;;8.90;1.00;;;;;;5012989;28;20475;-76
2023/05/11 04:20:19;;;;;;;3.90;1.80;;;8.90;1.00;;;;;;5012241;28;20042;-76
2023/05/11 04:22:46;;;;;;;4.45;1.88;;;9.00;1.00;;;;;;5013013;28;20030;-78
2023/05/11 04:25:12;;;;;;;3.30;1.55;;;9.10;1.00;;;;;;5011072;28;20030;-77
2023/05/11 04:27:38;;;;;;;5.13;1.50;;;9.10;1.00;;;;;;4995111;28;20464;-76
2023/05/11 04:30:05;;;;;;;5.38;2.05;;;9.10;99.90;;;;;;5010460;28;20064;-77
2023/05/11 04:32:32;;;;;;;3.70;1.70;;;9.10;99.90;;;;;;5012365;28;20034;-78
2023/05/11 04:34:58;;;;;;;3.20;2.03;;;9.20;99.90;;;;;;5015806;28;20046;-76
2023/05/11 04:37:26;;;;;;;3.03;2.22;;;9.30;99.90;;;;;;5022265;28;20053;-77
2023/05/11 04:39:53;;;;;;;3.03;1.70;;;9.30;99.90;;;;;;5023495;28;20570;-77
2023/05/11 04:42:19;;;;;;;3.88;2.42;;;9.30;99.90;;;;;;5010383;28;20715;-77
2023/05/11 04:44:52;;;;;;;4.63;3.03;;;9.20;99.90;;;;;;5009313;28;20467;-82
2023/05/11 04:47:19;;;;;;;4.70;2.60;;;9.20;99.90;;;;;;4987600;28;20042;-77
2023/05/11 04:49:46;;;;;;;3.65;1.63;;;9.30;99.90;;;;;;5010979;28;20042;-77
2023/05/11 04:52:13;;;;;;;5.65;2.33;;;9.30;99.90;;;;;;5010392;28;20467;-77
2023/05/11 04:54:41;;;;;;;4.00;2.38;;;9.40;99.90;;;;;;5008933;28;20038;-77
2023/05/11 04:57:07;;;;;;;3.13;1.90;;;9.50;99.90;;;;;;4992781;28;20034;-77
2023/05/11 04:59:33;;;;;;;7.00;2.75;;;9.50;99.90;;;;;;5025255;28;20049;-77
2023/05/11 05:02:00;;;;;;;3.67;1.52;;;9.60;99.90;;;;;;5009063;28;20037;-77
2023/05/11 05:04:26;;;;;;;4.40;1.95;;;9.70;99.90;;;;;;4987781;28;20041;-77
2023/05/11 05:06:53;;;;;;;2.85;1.85;;;9.70;99.90;;;;;;5009728;28;20030;-77
2023/05/11 05:09:19;;;;;;;3.15;1.63;;;9.90;99.90;;;;;;4994605;28;20038;-76
2023/05/11 05:11:45;;;;;;;2.75;1.70;;;9.80;99.90;;;;;;5006407;28;20046;-77
2023/05/11 05:14:11;;;;;;;4.60;2.13;;;9.90;99.90;;;;;;5024908;28;20140;-76
2023/05/11 05:16:37;;;;;;;4.97;2.35;;;10.00;99.90;;;;;;5010955;28;20034;-77
2023/05/11 05:19:04;;;;;;;3.58;2.08;;;10.00;99.90;;;;;;5011613;28;20049;-77
2023/05/11 05:21:31;;;;;;;5.97;2.17;;;10.10;99.90;;;;;;5008167;28;20061;-77
2023/05/11 05:23:57;;;;;;;5.35;2.30;;;10.30;99.90;;;;;;5009942;28;20018;-77
2023/05/11 05:26:23;;;;;;;7.68;2.63;;;10.40;99.90;;;;;;5005510;28;20052;-78
2023/05/11 05:28:50;;;;;;;6.60;3.00;;;10.50;99.90;;;;;;5007193;28;20046;-77
2023/05/11 05:31:19;;;;;;;5.28;3.08;;;10.50;99.90;;;;;;5009448;28;20379;-77
2023/05/11 05:33:45;;;;;;;5.70;2.95;;;10.60;99.90;;;;;;5014050;28;20057;-77
2023/05/11 05:36:12;;;;;;;5.45;3.00;;;10.60;99.90;;;;;;5025216;28;20034;-77
2023/05/11 05:38:38;;;;;;;5.10;3.40;;;10.70;99.90;;;;;;5010152;28;20037;-77
2023/05/11 05:41:05;;;;;;;6.72;3.50;;;10.80;99.90;;;;;;5025942;28;20045;-77
2023/05/11 05:43:35;;;;;;;5.07;3.35;;;10.80;99.90;;;;;;5026826;28;20038;-76
2023/05/11 05:46:02;;;;;;;6.25;4.15;;;10.90;99.90;;;;;;5010479;28;20022;-81
2023/05/11 05:48:28;;;;;;;8.20;4.60;;;11.00;99.90;;;;;;5024495;28;20035;-77
2023/05/11 05:50:55;;;;;;;5.65;4.20;;;11.00;93.70;;;;;;5011375;28;20045;-77
2023/05/11 05:53:21;;;;;;;6.22;4.22;;;11.20;90.00;;;;;;5011122;28;20069;-77
2023/05/11 05:55:47;;;;;;;4.88;3.28;;;11.30;70.10;;;;;;5007626;28;20060;-76
2023/05/11 05:58:14;;;;;;;5.45;3.75;;;11.20;65.40;;;;;;5008027;28;20053;-78
2023/05/11 06:00:40;;;;;;;6.95;4.35;;;11.30;69.90;;;;;;5027461;28;20042;-76
2023/05/11 06:03:09;;;;;;;6.40;4.15;;;11.40;46.10;;;;;;5006827;28;20041;-77
2023/05/11 06:05:35;;;;;;;6.55;4.43;;;11.30;36.40;;;;;;5006749;28;20042;-76
2023/05/11 06:08:02;;;;;;;5.40;3.53;;;11.40;31.20;;;;;;5017713;28;20069;-77
2023/05/11 06:10:28;;;;;;;8.32;4.88;;;11.30;35.10;;;;;;5015703;28;20038;-77
2023/05/11 06:12:55;;;;;;;9.02;5.20;;;11.30;43.90;;;;;;5013894;28;20053;-77
2023/05/11 06:15:21;;;;;;;10.50;4.85;;;11.40;35.50;;;;;;5006236;28;20049;-77
2023/05/11 06:17:53;;;;;;;7.28;4.80;;;11.60;38.00;;;;;;5012050;28;20088;-77
2023/05/11 06:20:20;;;;;;;9.75;4.53;;;11.80;22.80;;;;;;5013637;28;20041;-77
2023/05/11 06:22:46;;;;;;;7.18;4.65;;;11.80;11.30;;;;;;5014668;28;20029;-76
2023/05/11 06:25:13;;;;;;;5.50;4.55;;;11.80;16.40;;;;;;5008119;28;20053;-76
2023/05/11 06:27:40;;;;;;;7.80;4.95;;;12.00;12.40;;;;;;5015577;28;20034;-77
2023/05/11 06:30:07;;;;;;;6.97;4.28;;;12.00;1.00;;;;;;5013241;28;20395;-77
2023/05/11 06:32:35;;;;;;;6.40;4.47;;;11.90;1.00;;;;;;5013434;28;20049;-77
2023/05/11 06:35:02;;;;;;;8.23;4.95;;;11.90;1.00;;;;;;5013207;28;20037;-77
2023/05/11 06:37:29;;;;;;;6.25;3.70;;;11.90;1.00;;;;;;5012300;28;20037;-77
2023/05/11 06:39:56;;;;;;;6.13;4.10;;;11.90;1.00;;;;;;5015572;28;20029;-77
2023/05/11 06:42:23;;;;;;;6.97;5.03;;;12.00;1.00;;;;;;5014745;28;20044;-77
2023/05/11 06:44:49;;;;;;;6.60;3.83;;;12.10;1.00;;;;;;5015057;28;20038;-77
2023/05/11 06:47:15;;;;;;;8.75;4.75;;;12.40;1.00;;;;;;4988575;28;20049;-76
2023/05/11 06:49:41;;;;;;;8.43;4.20;;;12.50;1.00;;;;;;5013383;28;20033;-76
2023/05/11 06:52:08;;;;;;;9.95;4.68;;;12.60;1.00;;;;;;5014650;28;20030;-77
2023/05/11 06:54:34;;;;;;;11.98;4.00;;;12.70;1.00;;;;;;5021189;28;20042;-76
2023/05/11 06:57:04;;;;;;;13.23;5.30;;;12.70;1.00;;;;;;5014493;28;20042;-75
2023/05/11 06:59:31;;;;;;;8.82;4.43;;;12.60;1.00;;;;;;5015184;28;20030;-75
2023/05/11 07:01:57;;;;;;;8.93;5.03;;;12.60;1.00;;;;;;5030111;28;20056;-75
2023/05/11 07:04:24;;;;;;;5.60;3.83;;;12.50;1.00;;;;;;5014654;28;20038;-75
2023/05/11 07:06:50;;;;;;;6.93;3.58;;;12.80;1.00;;;;;;5013172;28;20040;-83
2023/05/11 07:09:16;;;;;;;7.28;4.30;;;12.90;1.00;;;;;;5003320;28;20036;-77
2023/05/11 07:11:42;;;;;;;6.38;4.00;;;12.60;1.00;;;;;;5012395;28;20056;-75
2023/05/11 07:14:08;;;;;;;7.65;3.10;;;12.60;1.00;;;;;;5014099;28;20036;-75
2023/05/11 07:16:37;;;;;;;6.22;3.70;;;12.60;1.00;;;;;;5014218;28;20026;-75
2023/05/11 07:19:04;;;;;;;4.10;2.88;;;12.80;1.00;;;;;;5014055;28;20362;-77
2023/05/11 07:21:31;;;;;;;4.07;2.85;;;13.00;1.00;;;;;;5013436;28;20045;-75
2023/05/11 07:23:58;;;;;;;6.50;3.28;;;13.10;1.00;;;;;;5014020;28;20030;-75
2023/05/11 07:26:24;;;;;;;5.18;3.75;;;13.00;1.00;;;;;;5013962;28;20030;-75
2023/05/11 07:28:50;;;;;;;5.32;3.22;;;13.00;1.00;;;;;;5014226;28;20053;-74
2023/05/11 07:31:16;;;;;;;4.25;3.25;;;12.70;1.00;;;;;;5011875;28;20049;-75
2023/05/11 07:33:42;;;;;;;4.85;3.15;;;12.80;1.00;;;;;;5013828;28;20471;-75
2023/05/11 07:36:09;;;;;;;5.53;3.63;;;13.10;1.00;;;;;;5013668;28;20501;-75
2023/05/11 07:38:35;;;;;;;4.05;2.50;;;13.20;1.00;;;;;;5013478;28;20030;-77
2023/05/11 07:41:02;;;;;;;4.53;2.50;;;13.00;1.00;;;;;;5012683;28;20375;-75
2023/05/11 07:43:28;;;;;;;5.60;2.55;;;13.00;1.00;;;;;;5013916;28;20057;-75
2023/05/11 07:45:54;;;;;;;4.07;2.63;;;13.40;1.00;;;;;;5013347;28;20379;-75
2023/05/11 07:48:20;;;;;;;4.97;2.92;;;13.40;1.00;;;;;;5013187;28;20478;-75
2023/05/11 07:50:48;;;;;;;3.63;2.40;;;13.20;1.00;;;;;;5011907;28;20038;-75
2023/05/11 07:53:15;;;;;;;5.03;2.58;;;13.20;1.00;;;;;;5007632;28;20034;-76
2023/05/11 07:55:41;;;;;;;4.03;2.65;;;13.30;1.00;;;;;;5024404;28;20041;-76
2023/05/11 07:58:07;;;;;;;5.85;2.92;;;13.40;1.00;;;;;;5012904;28;20026;-82
2023/05/11 08:00:33;;;;;;;3.85;2.35;;;13.40;1.00;;;;;;5011766;28;20378;-75
2023/05/11 08:03:00;;;;;;;3.53;1.92;;;13.50;1.00;;;;;;5017652;28;20041;-75
2023/05/11 08:05:27;;;;;;;4.75;2.17;;;13.50;1.00;;;;;;5012684;28;20379;-75
2023/05/11 08:07:53;;;;;;;3.92;2.10;;;13.70;1.00;;;;;;5013053;28;20029;-76
2023/05/11 08:10:19;;;;;;;4.47;2.53;;;13.90;1.00;;;;;;5005963;28;20041;-76
2023/05/11 08:12:45;;;;;;;5.47;2.22;;;13.80;1.00;;;;;;5011682;28;20378;-78
2023/05/11 08:15:11;;;;;;;6.20;2.90;;;13.60;1.00;;;;;;5012246;28;20026;-78
2023/05/11 08:17:37;;;;;;;5.88;2.13;;;13.70;1.00;;;;;;5012650;28;20037;-76
2023/05/11 08:20:05;;;;;;;5.60;2.42;;;14.00;1.00;;;;;;5011187;28;20034;-76
2023/05/11 08:22:31;;;;;;;5.18;2.50;;;13.80;1.00;;;;;;5005299;28;20620;-76
2023/05/11 08:24:57;;;;;;;4.85;2.30;;;13.90;1.00;;;;;;5004886;28;20084;-76
2023/05/11 08:27:23;;;;;;;3.88;2.22;;;13.80;1.00;;;;;;5012962;28;20026;-76
2023/05/11 08:29:50;;;;;;;3.50;2.38;;;13.80;1.00;;;;;;5012543;28;20034;-76
2023/05/11 08:32:16;;;;;;;3.85;2.20;;;13.80;1.00;;;;;;5009771;28;20057;-77
2023/05/11 08:34:43;;;;;;;3.50;1.88;;;14.00;1.00;;;;;;5011145;28;20388;-76
2023/05/11 08:37:09;;;;;;;4.25;2.70;;;13.90;1.00;;;;;;5004972;28;20042;-77
2023/05/11 08:39:36;;;;;;;6.00;2.20;;;14.10;1.00;;;;;;5012521;28;20119;-76
2023/05/11 08:42:05;;;;;;;4.78;2.38;;;14.40;1.00;;;;;;5012483;28;20030;-76
2023/05/11 08:44:33;;;;;;;6.40;2.00;;;14.70;1.00;;;;;;5010247;28;20045;-76
2023/05/11 08:47:00;;;;;;;3.20;1.98;;;14.40;1.00;;;;;;5012768;28;20042;-76
2023/05/11 08:49:26;;;;;;;9.90;1.67;;;14.50;1.00;;;;;;5009915;28;20042;-78
2023/05/11 08:51:53;;;;;;;5.78;3.10;;;14.50;1.00;;;;;;5012128;28;20037;-76
2023/05/11 08:54:19;;;;;;;4.38;2.10;;;14.50;1.00;;;;;;5025897;28;20045;-78
2023/05/11 08:56:46;;;;;;;4.95;2.50;;;14.30;1.00;;;;;;5009548;28;20470;-76
2023/05/11 08:59:14;;;;;;;18.25;5.35;;;14.20;1.00;;;;;;5011629;28;20037;-75
2023/05/11 09:01:40;;;;;;;11.95;4.30;;;13.70;1.00;;;;;;5012062;28;20048;-76
2023/05/11 09:04:08;;;;;;;6.65;3.47;;;13.70;1.00;;;;;;5007610;28;20475;-76
2023/05/11 09:06:35;;;;;;;6.25;3.25;;;14.10;1.00;;;;;;5011470;28;20033;-76
2023/05/11 09:09:02;;;;;;;4.90;2.65;;;14.20;1.00;;;;;;5011884;28;20030;-76
2023/05/11 09:11:29;;;;;;;5.07;3.42;;;14.30;1.00;;;;;;5006897;28;20050;-75
2023/05/11 09:13:55;;;;;;;8.50;3.75;;;14.10;1.00;;;;;;5011802;28;20025;-79
2023/05/11 09:16:22;;;;;;;6.80;3.25;;;14.20;1.00;;;;;;5010424;28;20033;-74
2023/05/11 09:18:50;;;;;;;12.70;3.92;;;14.30;1.00;;;;;;5011958;28;20037;-75
2023/05/11 09:21:16;;;;;;;10.20;4.35;;;14.40;1.00;;;;;;5011274;28;20026;-74
2023/05/11 09:23:42;;;;;;;11.23;4.13;;;14.30;1.00;;;;;;5012128;28;20037;-74
2023/05/11 09:26:16;;;;;;;9.30;3.10;;;14.20;1.00;;;;;;5010278;28;20467;-74
2023/05/11 09:28:52;;;;;;;10.68;4.18;;;14.20;1.00;;;;;;5011679;28;20455;-75
2023/05/11 09:31:38;;;;;;;8.95;3.40;;;14.30;1.00;;;;;;5011244;28;20034;-76
2023/05/11 09:34:21;;;;;;;10.13;3.90;;;14.70;1.00;;;;;;5012481;28;20042;-76
2023/05/11 09:36:51;;;;;;;11.00;4.07;;;15.20;1.00;;;;;;5016004;28;20038;-76
2023/05/11 09:39:26;;;;;;;;;;;15.10;1.00;;;;;;5015747;28;20030;-76
2023/05/11 09:42:17;;;;;;;7.80;4.05;;;15.10;1.00;;;;;;5014971;28;19913;-76
2023/05/11 09:44:44;;;;;;;;;;;15.40;1.00;;;;;;5014731;28;20049;-76
2023/05/11 09:47:15;;;;;;;6.80;3.35;;;15.40;99.90;;;;;;5030690;28;19913;-76
2023/05/11 09:49:43;;;;;;;5.97;3.45;;;15.40;1.00;;;;;;5015865;28;20367;-76
2023/05/11 09:52:11;;;;;;;5.30;2.58;;;15.50;1.00;;;;;;5015472;28;20034;-76
2023/05/11 09:54:43;;;;;;;8.77;4.03;;;15.70;1.00;;;;;;5014504;28;20030;-76
2023/05/11 09:57:21;;;;;;;6.50;3.95;;;15.80;99.90;;;;;;5009440;28;20025;-75
2023/05/11 09:59:47;;;;;;;8.95;3.45;;;15.70;99.90;;;;;;5015396;28;20486;-76
2023/05/11 10:02:20;;;;;;;8.15;3.38;;;15.60;1.00;;;;;;5010180;28;20053;-76
2023/05/11 10:04:47;;;;;;;6.93;3.95;;;15.70;1.00;;;;;;5011303;28;20034;-76
2023/05/11 10:07:26;;;;;;;9.05;4.43;;;15.40;1.00;;;;;;5013337;28;20053;-76
2023/05/11 10:09:57;;;;;;;10.43;4.47;;;15.40;1.00;;;;;;5012348;28;20371;-76
2023/05/11 10:12:25;;;;;;;11.23;5.32;;;15.80;1.00;;;;;;5014368;28;20356;-76
2023/05/11 10:14:57;;;;;;;9.35;4.43;;;16.10;99.90;;;;;;5014875;28;20053;-76
2023/05/11 10:17:24;;;;;;;7.72;4.22;;;16.20;99.90;;;;;;5013268;28;20138;-82
2023/05/11 10:19:53;;;;;;;11.82;4.38;;;16.30;99.90;;;;;;5014851;28;20308;-75
2023/05/11 10:22:20;;;;;;;7.40;3.63;;;16.10;99.90;;;;;;5012268;28;20050;-77
2023/05/11 10:24:47;;;;;;;8.32;3.80;;;15.90;99.90;;;;;;5017856;28;20042;-76
2023/05/11 10:27:13;;;;;;;11.18;5.22;;;15.70;99.90;;;;;;5016909;28;20033;-77
2023/05/11 10:29:41;;;;;;;8.23;4.63;;;15.70;1.00;;;;;;5016012;28;20022;-76
2023/05/11 10:32:09;;;;;;;8.52;4.38;;;15.80;99.90;;;;;;5015905;28;20045;-76
2023/05/11 10:34:35;;;;;;;6.00;3.97;;;15.70;99.90;;;;;;5014759;28;20399;-76
2023/05/11 10:37:03;;;;;;;9.55;4.82;;;15.70;99.90;;;;;;5014004;28;20033;-76
2023/05/11 10:39:29;;;;;;;8.25;5.60;;;15.60;99.90;;;;;;5014316;28;20026;-76
2023/05/11 10:42:14;;;;;;;7.78;5.30;;;15.40;99.90;;;;;;5015323;28;20044;-76
2023/05/11 10:45:02;;;;;;;7.05;5.72;;;15.50;1.00;;;;;;5028012;28;20030;-76
2023/05/11 10:47:49;;;;;;;9.85;5.63;;;15.60;99.90;;;;;;5013589;28;20034;-76
2023/05/11 10:50:55;;;;;;;8.75;5.65;;;15.60;99.90;;;;;;5012507;28;20029;-76
2023/05/11 10:53:48;;;;;;;6.97;5.18;;;15.80;99.90;;;;;;4982522;28;20046;-77
2023/05/11 10:56:32;;;;;;;6.82;4.22;;;15.90;99.90;;;;;;5025682;28;20026;-77
2023/05/11 10:59:10;;;;;;;7.00;4.95;;;15.90;99.90;;;;;;5015532;28;20028;-76
2023/05/11 11:01:38;;;;;;;9.52;4.93;;;16.00;99.90;;;;;;5008430;28;20033;-77
2023/05/11 11:04:07;;;;;;;5.88;4.38;;;15.90;99.90;;;;;;5011836;28;20052;-77
2023/05/11 11:06:35;;;;;;;6.78;4.63;;;15.90;99.90;;;;;;5013248;28;20798;-77
2023/05/11 11:09:05;;;;;;;7.85;4.45;;;15.80;99.90;;;;;;5015198;28;20041;-77
2023/05/11 11:11:38;;;;;;;6.20;4.38;;;15.80;99.90;;;;;;5010152;28;20034;-76
2023/05/11 11:14:08;;;;;;;7.13;5.10;;;16.00;99.90;;;;;;5010580;28;20030;-78
2023/05/11 11:16:36;;;;;;;6.30;4.45;;;15.90;99.90;;;;;;5012832;28;20038;-76
2023/05/11 11:19:30;;;;;;;5.93;4.55;;;16.00;99.90;;;;;;5014849;28;20447;-76
2023/05/11 11:21:57;;;;;;;5.47;4.05;;;16.10;99.90;;;;;;5014005;28;20026;-75
2023/05/11 11:24:41;;;;;;;6.15;3.72;;;16.10;99.90;;;;;;5012389;28;20037;-76
2023/05/11 11:27:08;;;;;;;7.18;4.32;;;16.60;99.90;;;;;;5012497;28;20026;-76
2023/05/11 11:29:36;;;;;;;7.20;4.40;;;16.50;99.90;;;;;;5013423;28;20391;-76
2023/05/11 11:32:23;;;;;;;6.75;3.85;;;16.20;99.90;;;;;;5015778;28;20044;-76
2023/05/11 11:34:50;;;;;;;4.95;2.80;;;16.60;99.90;;;;;;5018434;28;20061;-76
2023/05/11 11:37:17;;;;;;;5.63;3.65;;;16.90;99.90;;;;;;5012473;28;20038;-76
2023/05/11 11:39:46;;;;;;;9.13;3.53;;;17.00;99.90;;;;;;5014027;28;20030;-77
2023/05/11 11:42:14;;;;;;;5.20;3.58;;;17.10;99.90;;;;;;5012758;28;20034;-76
2023/05/11 11:44:41;;;;;;;4.00;3.33;;;17.20;99.90;;;;;;5013657;28;20029;-76
2023/05/11 11:47:21;;;;;;;5.90;3.50;;;16.80;99.90;;;;;;5012692;28;20030;-76
2023/05/11 11:49:52;;;;;;;6.67;3.50;;;16.60;99.90;;;;;;5013356;28;20030;-76
2023/05/11 11:52:27;;;;;;;;;;;16.70;99.90;;;;;;5013559;28;20033;-76
2023/05/11 11:54:55;;;;;;;9.80;3.58;;;16.60;99.90;;;;;;5012818;28;19909;-75
2023/05/11 11:57:43;;;;;;;6.22;3.13;;;16.50;99.90;;;;;;5008276;28;20037;-75
2023/05/11 12:00:10;;;;;;;6.53;3.42;;;16.40;99.90;;;;;;5010784;28;20498;-75
2023/05/11 12:02:43;;;;;;;5.25;3.42;;;16.30;99.90;;;;;;5012721;28;20029;-75
2023/05/11 12:05:17;;;;;;;5.88;3.35;;;16.20;99.90;;;;;;5012446;28;20030;-76
2023/05/11 12:07:45;;;;;;;4.32;3.28;;;16.40;99.90;;;;;;4995398;28;20042;-78
2023/05/11 12:10:13;;;;;;;4.63;3.17;;;16.80;99.90;;;;;;5012856;28;20034;-77
2023/05/11 12:12:44;;;;;;;4.05;2.70;;;17.20;99.90;;;;;;5011420;28;20038;-77
2023/05/11 12:15:23;;;;;;;4.28;3.05;;;17.40;99.90;;;;;;5027711;28;20025;-77
2023/05/11 12:17:49;;;;;;;4.25;2.80;;;17.30;99.90;;;;;;5009384;28;20026;-77
2023/05/11 12:20:17;;;;;;;6.00;3.13;;;17.20;99.90;;;;;;5013027;28;20035;-78
2023/05/11 12:22:45;;;;;;;8.27;3.63;;;17.20;99.90;;;;;;5012647;28;20044;-78
2023/05/11 12:25:16;;;;;;;5.50;2.85;;;17.40;99.90;;;;;;5012130;28;20029;-78
2023/05/11 12:27:45;;;;;;;;;;;17.40;99.90;;;;;;5012945;28;20030;-77
2023/05/11 12:30:22;;;;;;;3.60;2.67;;;17.30;99.90;;;;;;5027537;28;19901;-77
2023/05/11 12:32:48;;;;;;;4.18;2.72;;;17.00;99.90;;;;;;5009222;28;20045;-78
2023/05/11 12:35:22;;;;;;;4.35;2.67;;;17.50;99.90;;;;;;5011755;28;20046;-80
2023/05/11 12:37:48;;;;;;;4.72;3.05;;;17.50;99.90;;;;;;5012529;28;20029;-78
2023/05/11 12:40:14;;;;;;;3.85;2.30;;;17.50;99.90;;;;;;5016218;28;20052;-80
2023/05/11 12:42:54;;;;;;;10.30;3.83;;;17.60;99.90;;;;;;5011645;28;20049;-77
2023/05/11 12:45:23;;;;;;;6.38;3.17;;;17.60;99.90;;;;;;5020837;28;20034;-77
2023/05/11 12:47:52;;;;;;;6.00;2.97;;;17.70;99.90;;;;;;5010323;28;20034;-78
2023/05/11 12:50:19;;;;;;;3.40;2.53;;;17.70;99.90;;;;;;5011662;28;20049;-78
2023/05/11 12:52:47;;;;;;;7.30;3.58;;;17.70;99.90;;;;;;5012058;28;20505;-78
2023/05/11 12:55:15;;;;;;;7.60;3.65;;;17.80;99.90;;;;;;5011525;28;20037;-81
2023/05/11 12:57:42;;;;;;;11.52;3.55;;;17.70;99.90;;;;;;5011742;28;20029;-78
2023/05/11 13:00:12;;;;;;;5.43;3.08;;;17.70;99.90;;;;;;5012681;28;20379;-76
2023/05/11 13:02:52;;;;;;;6.97;3.53;;;17.10;99.90;;;;;;5008757;28;20038;-78
2023/05/11 13:05:23;;;;;;;6.70;3.38;;;16.80;99.90;;;;;;5007621;28;20077;-84